Thursday, January 18, 2018, 8:48 PM EST
Back to Local

KSFM, Sanford, Sanford Regional Airport

Location: Sanford, ME, United States Lat: 43.4
Local Time: 8:48 PM EST ( 1:48 GMT) Lon: -70.717
Time Zone: US/Eastern Elev: 242 ft

Show me the last for .
Show Decoded

2018-01-18 20:19 METAR KSFM 190119Z AUTO 00000KT 3SM BR CLR M11/M12 A2990 RMK AO2 SNE02 P0000
                 FZRANO =
2018-01-18 20:14 METAR KSFM 190114Z AUTO 00000KT 1 1/4SM BR CLR M11/M11 A2991 RMK AO2 SNE02 P0000
                 FZRANO =
2018-01-18 19:56 METAR KSFM 190056Z AUTO 00000KT 2SM -SN BR FEW033 M09/M10 A2991 RMK AO2 VIS
                 1/2V5 SNB42 SLP136 P0000 T10891100 FZRANO =
2018-01-18 19:23 METAR KSFM 190023Z AUTO 00000KT 1 1/4SM BR CLR M08/M09 A2990 RMK AO2 VIS 1/4V5
                 FZRANO =
2018-01-18 18:56 METAR KSFM 182356Z AUTO 00000KT 10SM CLR M06/M07 A2989 RMK AO2 SLP129 T10611072
                 11011 21061 53015 FZRANO =
2018-01-18 17:56 METAR KSFM 182256Z AUTO 00000KT 10SM OVC033 M04/M06 A2987 RMK AO2 SLP121
                 T10391061 FZRANO =
2018-01-18 16:56 METAR KSFM 182156Z AUTO 00000KT 10SM OVC033 M04/M07 A2985 RMK AO2 SLP117
                 T10391072 FZRANO =
2018-01-18 15:56 METAR KSFM 182056Z AUTO 34004KT 10SM CLR M02/M07 A2985 RMK AO2 SLP114 T10221072
                 53001 FZRANO =
2018-01-18 14:56 METAR KSFM 181956Z AUTO 33007KT 10SM CLR M02/M08 A2983 RMK AO2 SLP107 T10171078
                 FZRANO =
2018-01-18 14:08 METAR KSFM 181908Z AUTO 36004KT 10SM SCT027 M02/M08 A2984 RMK AO2 FZRANO =
2018-01-18 13:56 METAR KSFM 181856Z AUTO 34009KT 10SM BKN027 M02/M07 A2984 RMK AO2 SLP112
                 T10171072 FZRANO =
2018-01-18 13:52 METAR KSFM 181852Z AUTO 33008KT 10SM BKN027 M02/M07 A2984 RMK AO2 FZRANO =
2018-01-18 12:56 METAR KSFM 181756Z AUTO 25005KT 10SM CLR M02/M07 A2987 RMK AO2 SLP120 60000
                 T10171072 10017 21144 58025 FZRANO =
2018-01-18 12:03 METAR KSFM 181703Z AUTO 28007KT 10SM SCT021 00/M07 A2989 RMK AO2 FZRANO =
2018-01-18 11:56 METAR KSFM 181656Z AUTO 35006KT 10SM BKN021 M01/M07 A2989 RMK AO2 SLP127
                 T10061072 FZRANO =
2018-01-18 11:30 METAR KSFM 181630Z AUTO 32005KT 10SM BKN021 00/M08 A2991 RMK AO2 FZRANO =
2018-01-18 10:56 METAR KSFM 181556Z AUTO 35004KT 10SM CLR 01/M08 A2992 RMK AO2 SLP137 T00061078
                 FZRANO =
2018-01-18 09:56 METAR KSFM 181456Z AUTO 29003KT 10SM CLR M03/M08 A2994 RMK AO2 SLP145 60000
                 T10281078 53003 FZRANO =
2018-01-18 08:56 METAR KSFM 181356Z AUTO 29003KT 10SM CLR M06/M08 A2993 RMK AO2 SNE01 SLP143
                 P0000 T10611083 FZRANO =
2018-01-18 07:56 METAR KSFM 181256Z AUTO 00000KT 3SM -SN BR CLR M12/M13 A2994 RMK AO2 SNB18
                 SLP144 P0000 T11221133 FZRANO =
2018-01-18 07:39 METAR KSFM 181239Z AUTO 00000KT 8SM -SN CLR M13/M15 A2994 RMK AO2 SNB18 P0000
                 FZRANO =
2018-01-18 07:30 METAR KSFM 181230Z AUTO 00000KT 2SM -SN BR CLR M14/M15 A2993 RMK AO2 SNB18 P0000
                 FZRANO =
2018-01-18 07:23 METAR KSFM 181223Z AUTO 00000KT 1/2SM -SN FZFG CLR M14/M15 A2993 RMK AO2 VIS
                 M1/4V5 SNB18 P0000 FZRANO RVRNO =
2018-01-18 06:56 METAR KSFM 181156Z AUTO 00000KT 9SM CLR M13/M15 A2993 RMK AO2 SLP143 70018
                 T11331150 11044 21139 55006 FZRANO =
2018-01-18 05:56 METAR KSFM 181056Z AUTO 33003KT 10SM CLR M10/M12 A2993 RMK AO2 SLP143 T11001117
                 FZRANO =
2018-01-18 04:56 METAR KSFM 180956Z AUTO 27007KT 10SM CLR M08/M09 A2995 RMK AO2 SLP148 T10831089
                 FZRANO =
2018-01-18 03:56 METAR KSFM 180856Z AUTO 00000KT 6SM BR CLR M09/M11 A2995 RMK AO2 SLP150
                 T10941111 56017 FZRANO =
2018-01-18 02:56 METAR KSFM 180756Z AUTO 27004KT 10SM CLR M06/M07 A2997 RMK AO2 SLP155 T10611067
                 FZRANO =
2018-01-18 02:13 METAR KSFM 180713Z AUTO 26007KT 4SM BR CLR M06/M07 A2997 RMK AO2 FZRANO =
2018-01-18 02:11 METAR KSFM 180711Z AUTO 27008KT 1 1/4SM BR CLR M07/M07 A2997 RMK AO2 VIS 1/4V5
                 FZRANO =
2018-01-18 02:02 METAR KSFM 180702Z AUTO 25004KT 3/4SM BR CLR M07/M07 A2997 RMK AO2 VIS 1/4V5
                 FZRANO RVRNO =
2018-01-18 01:56 METAR KSFM 180656Z AUTO 24004KT 5SM BR CLR M07/M08 A2997 RMK AO2 SLP156
                 T10671078 FZRANO TSNO =
2018-01-18 01:53 METAR KSFM 180653Z AUTO 23004KT 1 1/4SM BR CLR M07/M08 A2997 RMK AO2 VIS 1/4V5
                 FZRANO TSNO =
2018-01-18 01:51 METAR KSFM 180651Z AUTO 22004KT 3/4SM BR CLR M07/M08 A2997 RMK AO2 VIS 1/4V5
                 FZRANO TSNO RVRNO =
2018-01-18 01:47 METAR KSFM 180647Z AUTO 23004KT 1/4SM FZFG CLR M07/M08 A2997 RMK AO2 FZRANO
                 RVRNO =
2018-01-18 01:38 METAR KSFM 180638Z AUTO 25003KT 1/2SM FZFG CLR M06/M06 A2998 RMK AO2 FZRANO
                 RVRNO =
2018-01-18 01:36 METAR KSFM 180636Z AUTO 25003KT 1SM BR CLR M06/M06 A2998 RMK AO2 FZRANO RVRNO =
2018-01-18 00:56 METAR KSFM 180556Z AUTO 24003KT 10SM SCT039 M04/M06 A3000 RMK AO2 SLP166 P0001
                 60006 T10441056 11028 21044 58020 FZRANO =
2018-01-17 23:56 METAR KSFM 180456Z AUTO 00000KT 10SM OVC035 M03/M04 A3004 RMK AO2 SLP177 P0002
                 T10331039 FZRANO =
2018-01-17 23:10 METAR KSFM 180410Z AUTO 00000KT 10SM SCT023 OVC033 M03/M04 A3004 RMK AO2 P0001
                 FZRANO =
2018-01-17 22:56 METAR KSFM 180356Z AUTO 00000KT 10SM SCT023 OVC028 M03/M04 A3004 RMK AO2 SLP179
                 P0001 T10281039 410171039 FZRANO =
2018-01-17 21:56 METAR KSFM 180256Z AUTO 30004KT 10SM BKN025 OVC035 M03/M04 A3006 RMK AO2 SNE41
                 SLP187 P0001 60002 T10281039 55007 FZRANO =
2018-01-17 21:40 METAR KSFM 180240Z AUTO 29003KT 9SM -SN FEW017 BKN025 OVC035 M03/M04 A3006 RMK
                 AO2 P0000 FZRANO =
2018-01-17 21:29 METAR KSFM 180229Z AUTO 29003KT 9SM -SN SCT017 SCT025 OVC040 M03/M04 A3006 RMK
                 AO2 P0000 FZRANO =
2018-01-17 21:22 METAR KSFM 180222Z AUTO 30005KT 9SM -SN BKN017 OVC040 M03/M04 A3006 RMK AO2
                 P0000 FZRANO =
2018-01-17 20:56 METAR KSFM 180156Z AUTO 30004KT 8SM -SN FEW026 SCT036 OVC044 M03/M04 A3006 RMK
                 AO2 SLP186 P0000 T10281039 FZRANO =

Support USWX by starting your Amazon purchase here.